createdAt,value
2018-08-06T00:02:23.252Z,0.90
2018-08-06T00:04:58.238Z,0.90
2018-08-06T00:07:33.218Z,0.70
2018-08-06T00:10:10.268Z,0.70
2018-08-06T00:12:45.252Z,0.90
2018-08-06T00:15:20.681Z,0.80
2018-08-06T00:17:55.566Z,0.53
2018-08-06T00:20:30.266Z,0.90
2018-08-06T00:23:05.346Z,0.80
2018-08-06T00:25:40.168Z,0.73
2018-08-06T00:28:15.011Z,0.70
2018-08-06T00:30:50.175Z,0.90
2018-08-06T00:33:24.888Z,0.90
2018-08-06T00:35:59.920Z,0.77
2018-08-06T00:38:34.795Z,0.97
2018-08-06T00:41:09.527Z,1.00
2018-08-06T00:43:44.516Z,0.60
2018-08-06T00:46:21.168Z,0.80
2018-08-06T00:48:56.280Z,0.83
2018-08-06T00:51:32.014Z,0.80
2018-08-06T00:54:06.865Z,0.80
2018-08-06T00:56:41.717Z,1.20
2018-08-06T00:59:17.071Z,0.80
2018-08-06T01:01:52.396Z,0.90
2018-08-06T01:04:27.496Z,3.33
2018-08-06T01:07:02.740Z,0.60
2018-08-06T01:09:37.898Z,0.70
2018-08-06T01:12:13.113Z,0.83
2018-08-06T01:14:47.837Z,0.60
2018-08-06T01:17:23.760Z,0.80
2018-08-06T01:19:59.702Z,0.60
2018-08-06T01:22:34.853Z,0.90
2018-08-06T01:25:10.172Z,0.90
2018-08-06T01:27:45.297Z,0.80
2018-08-06T01:30:20.542Z,0.97
2018-08-06T01:32:55.554Z,1.03
2018-08-06T01:35:30.661Z,1.03
2018-08-06T01:38:05.664Z,0.67
2018-08-06T01:40:40.446Z,0.90
2018-08-06T01:43:15.470Z,0.90
2018-08-06T01:45:50.522Z,0.70
2018-08-06T01:48:25.405Z,1.17
2018-08-06T01:51:00.137Z,0.90
2018-08-06T01:53:35.453Z,0.70
2018-08-06T01:56:10.493Z,0.83
2018-08-06T01:58:45.467Z,0.80
2018-08-06T02:01:20.586Z,0.70
2018-08-06T02:03:56.709Z,0.80
2018-08-06T02:06:31.556Z,0.90
2018-08-06T02:09:07.651Z,0.93
2018-08-06T02:11:42.904Z,0.97
2018-08-06T02:14:17.891Z,0.70
2018-08-06T02:16:52.901Z,0.80
2018-08-06T02:19:27.889Z,0.87
2018-08-06T02:22:03.435Z,0.70
2018-08-06T02:24:38.654Z,1.00
2018-08-06T02:27:14.637Z,0.80
2018-08-06T02:29:50.414Z,0.70
2018-08-06T02:32:25.626Z,0.70
2018-08-06T02:35:01.176Z,0.80
2018-08-06T02:37:36.653Z,0.80
2018-08-06T02:40:12.561Z,0.80
2018-08-06T02:42:48.396Z,0.83
2018-08-06T02:45:23.194Z,0.80
2018-08-06T02:47:58.037Z,0.83
2018-08-06T02:50:33.046Z,1.00
2018-08-06T02:53:08.025Z,0.80
2018-08-06T02:55:43.159Z,1.00
2018-08-06T02:58:19.181Z,0.80
2018-08-06T03:00:54.283Z,0.70
2018-08-06T03:03:29.714Z,0.93
2018-08-06T03:06:04.968Z,0.70
2018-08-06T03:08:40.204Z,0.90
2018-08-06T03:11:15.213Z,0.90
2018-08-06T03:13:50.237Z,0.80
2018-08-06T03:16:26.005Z,1.03
2018-08-06T03:19:01.102Z,0.80
2018-08-06T03:21:36.409Z,0.90
2018-08-06T03:24:11.261Z,0.80
2018-08-06T03:26:46.006Z,0.90
2018-08-06T03:29:21.178Z,0.80
2018-08-06T03:31:56.136Z,0.83
2018-08-06T03:34:31.267Z,0.70
2018-08-06T03:37:06.369Z,0.67
2018-08-06T03:39:41.404Z,0.80
2018-08-06T03:42:16.415Z,0.60
2018-08-06T03:44:51.848Z,0.90
2018-08-06T03:47:27.598Z,0.90
2018-08-06T03:50:02.762Z,0.87
2018-08-06T03:52:38.132Z,0.87
2018-08-06T03:55:13.272Z,0.90
2018-08-06T03:57:48.562Z,0.90
2018-08-06T04:00:23.392Z,0.70
2018-08-06T04:02:58.229Z,1.00
2018-08-06T04:05:33.348Z,0.70
2018-08-06T04:08:08.779Z,0.90
2018-08-06T04:10:43.938Z,0.70
2018-08-06T04:13:19.500Z,0.87
2018-08-06T04:15:54.375Z,0.90
2018-08-06T04:18:29.484Z,0.80
2018-08-06T04:21:04.177Z,2.00
2018-08-06T04:23:39.020Z,0.80
2018-08-06T04:26:14.180Z,0.80
2018-08-06T04:28:49.166Z,1.00
2018-08-06T04:31:24.835Z,0.70
2018-08-06T04:34:00.088Z,0.80
2018-08-06T04:36:35.412Z,0.70
2018-08-06T04:39:10.263Z,0.70
2018-08-06T04:41:45.716Z,1.80
2018-08-06T04:44:21.420Z,1.10
2018-08-06T04:46:56.754Z,0.80
2018-08-06T04:49:31.756Z,0.67
2018-08-06T04:52:06.961Z,0.90
2018-08-06T04:54:41.984Z,0.90
2018-08-06T04:57:16.952Z,0.70
2018-08-06T04:59:52.049Z,2.00
2018-08-06T05:02:27.044Z,0.73
2018-08-06T05:05:02.565Z,1.30
2018-08-06T05:07:38.062Z,0.77
2018-08-06T05:10:13.234Z,0.83
2018-08-06T05:12:49.388Z,0.90
2018-08-06T05:15:24.608Z,0.90
2018-08-06T05:17:59.568Z,0.90
2018-08-06T05:20:34.337Z,0.90
2018-08-06T05:23:09.465Z,1.13
2018-08-06T05:25:44.448Z,1.07
2018-08-06T05:28:19.577Z,0.70
2018-08-06T05:30:55.015Z,0.87
2018-08-06T05:33:30.592Z,0.70
2018-08-06T05:36:05.520Z,0.90
2018-08-06T05:38:40.842Z,0.90
2018-08-06T05:41:15.949Z,1.07
2018-08-06T05:43:51.556Z,2.10
2018-08-06T05:46:26.742Z,0.83
2018-08-06T05:49:02.216Z,0.70
2018-08-06T05:51:37.212Z,1.90
2018-08-06T05:54:12.443Z,0.73
2018-08-06T05:56:47.573Z,0.77
2018-08-06T05:59:22.841Z,1.07
2018-08-06T06:01:57.857Z,0.70
2018-08-06T06:04:33.126Z,0.73
2018-08-06T06:07:08.176Z,1.43
2018-08-06T06:09:43.191Z,0.67
2018-08-06T06:12:18.033Z,0.70
2018-08-06T06:14:52.900Z,0.97
2018-08-06T06:17:28.004Z,1.00
2018-08-06T06:20:03.267Z,0.80
2018-08-06T06:22:38.597Z,0.87
2018-08-06T06:25:14.068Z,2.00
2018-08-06T06:27:49.098Z,0.80
2018-08-06T06:30:24.333Z,1.33
2018-08-06T06:32:59.299Z,0.80
2018-08-06T06:35:34.793Z,0.87
2018-08-06T06:38:09.652Z,0.60
2018-08-06T06:40:44.576Z,0.80
2018-08-06T06:43:19.328Z,0.77
2018-08-06T06:45:54.096Z,0.70
2018-08-06T06:48:28.914Z,0.97
2018-08-06T06:51:03.905Z,0.80
2018-08-06T06:53:39.218Z,0.77
2018-08-06T06:56:14.248Z,0.93
2018-08-06T06:58:49.216Z,1.00
2018-08-06T07:01:24.236Z,0.80
2018-08-06T07:03:59.068Z,0.70
2018-08-06T07:06:33.929Z,0.80
2018-08-06T07:09:09.868Z,0.80
2018-08-06T07:11:45.001Z,0.90
2018-08-06T07:14:20.033Z,0.90
2018-08-06T07:16:55.065Z,0.70
2018-08-06T07:19:29.891Z,1.67
2018-08-06T07:22:04.751Z,0.83
2018-08-06T07:24:40.314Z,0.70
2018-08-06T07:27:15.445Z,0.97
2018-08-06T07:29:50.426Z,0.77
2018-08-06T07:32:25.148Z,0.80
2018-08-06T07:35:00.249Z,0.80
2018-08-06T07:37:36.543Z,0.60
2018-08-06T07:40:12.457Z,0.80
2018-08-06T07:42:47.410Z,0.97
2018-08-06T07:45:22.404Z,0.83
2018-08-06T07:47:58.182Z,0.80
2018-08-06T07:50:33.319Z,0.70
2018-08-06T07:53:08.265Z,0.80
2018-08-06T07:55:43.245Z,0.60
2018-08-06T07:58:18.205Z,0.63
2018-08-06T08:00:53.329Z,0.80
2018-08-06T08:03:28.505Z,0.70
2018-08-06T08:06:03.520Z,0.80
2018-08-06T08:08:38.489Z,0.70
2018-08-06T08:11:13.209Z,0.80
2018-08-06T08:13:47.967Z,0.80
2018-08-06T08:16:23.118Z,0.70
2018-08-06T08:18:57.930Z,0.77
2018-08-06T08:21:32.666Z,0.67
2018-08-06T08:24:07.985Z,0.70
2018-08-06T08:26:43.154Z,0.80
2018-08-06T08:29:18.600Z,1.13
2018-08-06T08:31:53.921Z,0.90
2018-08-06T08:34:29.001Z,0.70
2018-08-06T08:37:04.593Z,0.70
2018-08-06T08:39:40.217Z,0.73
2018-08-06T08:42:15.549Z,0.70
2018-08-06T08:44:51.229Z,0.70
2018-08-06T08:47:26.236Z,0.73
2018-08-06T08:50:01.208Z,0.77
2018-08-06T08:52:37.090Z,0.67
2018-08-06T08:55:14.041Z,0.87
2018-08-06T08:57:49.144Z,0.80
2018-08-06T09:00:24.417Z,0.80
2018-08-06T09:03:00.127Z,0.73
2018-08-06T09:05:35.369Z,0.50
2018-08-06T09:08:10.219Z,0.90
2018-08-06T09:10:45.895Z,0.90
2018-08-06T09:13:21.161Z,1.10
2018-08-06T09:15:57.326Z,1.67
2018-08-06T09:18:32.562Z,0.70
2018-08-06T09:21:08.188Z,0.80
2018-08-06T09:23:43.492Z,0.80
2018-08-06T09:26:18.634Z,0.97
2018-08-06T09:28:53.357Z,0.90
2018-08-06T09:31:28.481Z,0.90
2018-08-06T09:34:03.535Z,1.10
2018-08-06T09:36:38.491Z,0.90
2018-08-06T09:39:13.670Z,0.90
2018-08-06T09:41:48.420Z,1.13
2018-08-06T09:44:23.170Z,0.90
2018-08-06T09:46:58.344Z,1.00
2018-08-06T09:49:33.513Z,0.93
2018-08-06T09:52:08.469Z,0.90
2018-08-06T09:54:43.204Z,0.80
2018-08-06T09:57:18.374Z,0.67
2018-08-06T09:59:53.851Z,0.90
2018-08-06T10:02:28.825Z,0.90
2018-08-06T10:05:04.053Z,0.90
2018-08-06T10:07:39.032Z,1.00
2018-08-06T10:10:14.084Z,1.00
2018-08-06T10:12:49.411Z,1.23
2018-08-06T10:15:24.969Z,1.00
2018-08-06T10:17:59.964Z,0.80
2018-08-06T10:20:34.957Z,0.80
2018-08-06T10:23:10.100Z,1.07
2018-08-06T10:25:45.362Z,0.70
2018-08-06T10:28:20.411Z,0.70
2018-08-06T10:30:55.427Z,0.70
2018-08-06T10:33:30.591Z,0.80
2018-08-06T10:36:05.708Z,0.97
2018-08-06T10:38:40.713Z,0.83
2018-08-06T10:41:17.145Z,0.90
2018-08-06T10:43:52.256Z,1.03
2018-08-06T10:46:27.606Z,0.90
2018-08-06T10:49:02.898Z,0.83
2018-08-06T10:51:37.801Z,0.80
2018-08-06T10:54:12.936Z,0.90
2018-08-06T10:56:47.917Z,1.03
2018-08-06T10:59:22.989Z,0.80
2018-08-06T11:01:58.435Z,0.93
2018-08-06T11:04:34.044Z,0.80
2018-08-06T11:07:09.177Z,0.80
2018-08-06T11:09:44.434Z,1.00
2018-08-06T11:12:19.682Z,0.80
2018-08-06T11:14:54.649Z,0.87
2018-08-06T11:17:29.424Z,0.90
2018-08-06T11:20:04.673Z,1.03
2018-08-06T11:22:40.093Z,1.10
2018-08-06T11:25:16.152Z,0.93
2018-08-06T11:27:51.166Z,0.87
2018-08-06T11:30:26.053Z,0.97
2018-08-06T11:33:00.897Z,0.80
2018-08-06T11:35:36.117Z,0.80
2018-08-06T11:38:11.159Z,0.80
2018-08-06T11:40:46.161Z,1.00
2018-08-06T11:43:21.272Z,1.03
2018-08-06T11:45:56.239Z,1.00
2018-08-06T11:48:31.430Z,0.90
2018-08-06T11:51:06.598Z,0.83
2018-08-06T11:53:42.061Z,0.90
2018-08-06T11:56:17.085Z,1.10
2018-08-06T11:58:53.541Z,1.53
2018-08-06T12:01:28.666Z,0.97
2018-08-06T12:04:03.671Z,1.10
2018-08-06T12:06:39.469Z,1.00
2018-08-06T12:09:14.690Z,0.97
2018-08-06T12:11:50.297Z,0.97
2018-08-06T12:14:25.385Z,0.90
2018-08-06T12:17:00.280Z,1.27
2018-08-06T12:19:35.072Z,0.80
2018-08-06T12:22:10.757Z,1.00
2018-08-06T12:24:45.748Z,1.00
2018-08-06T12:27:21.063Z,1.00
2018-08-06T12:29:55.752Z,1.10
2018-08-06T12:32:30.489Z,1.20
2018-08-06T12:35:05.330Z,1.00
2018-08-06T12:37:40.331Z,1.17
2018-08-06T12:40:16.667Z,1.40
2018-08-06T12:42:51.421Z,1.00
2018-08-06T12:45:26.277Z,0.80
2018-08-06T12:48:01.376Z,1.27
2018-08-06T12:50:36.647Z,1.13
2018-08-06T12:53:11.636Z,0.97
2018-08-06T12:55:47.219Z,1.00
2018-08-06T12:58:22.040Z,1.00
2018-08-06T13:00:56.785Z,1.10
2018-08-06T13:03:31.906Z,1.00
2018-08-06T13:06:06.967Z,1.00
2018-08-06T13:08:42.477Z,0.77
2018-08-06T13:11:19.137Z,1.10
2018-08-06T13:13:54.440Z,1.47
2018-08-06T13:16:29.747Z,0.90
2018-08-06T13:19:05.136Z,0.90
2018-08-06T13:21:40.797Z,1.00
2018-08-06T13:24:15.613Z,1.20
2018-08-06T13:26:50.748Z,1.00
2018-08-06T13:29:25.969Z,0.90
2018-08-06T13:32:01.260Z,1.03
2018-08-06T13:34:37.495Z,1.03
2018-08-06T13:37:12.980Z,1.03
2018-08-06T13:39:48.231Z,1.07
2018-08-06T13:42:23.267Z,1.00
2018-08-06T13:44:58.264Z,1.20
2018-08-06T13:47:33.799Z,0.80
2018-08-06T13:50:09.068Z,0.90
2018-08-06T13:52:44.165Z,1.13
2018-08-06T13:55:19.165Z,0.90
2018-08-06T13:57:54.312Z,0.80
2018-08-06T14:00:29.400Z,1.10
2018-08-06T14:03:04.361Z,1.10
2018-08-06T14:05:39.087Z,1.40
2018-08-06T14:08:14.000Z,1.10
2018-08-06T14:10:48.856Z,2.17
2018-08-06T14:13:23.825Z,1.10
2018-08-06T14:15:58.825Z,0.70
2018-08-06T14:18:34.002Z,0.97
2018-08-06T14:21:08.895Z,1.57
2018-08-06T14:23:44.386Z,1.10
2018-08-06T14:26:19.092Z,0.70
2018-08-06T14:28:54.731Z,0.90
2018-08-06T14:31:29.762Z,1.03
2018-08-06T14:34:04.884Z,1.03
2018-08-06T14:36:39.935Z,1.20
2018-08-06T14:39:15.073Z,1.30
2018-08-06T14:41:50.082Z,0.97
2018-08-06T14:44:25.234Z,1.00
2018-08-06T14:47:00.203Z,1.40
2018-08-06T14:49:35.754Z,1.10
2018-08-06T14:52:10.667Z,1.33
2018-08-06T14:54:45.573Z,0.80
2018-08-06T14:57:21.435Z,1.33
2018-08-06T14:59:56.993Z,0.87
2018-08-06T15:02:32.210Z,1.07
2018-08-06T15:05:07.423Z,0.97
2018-08-06T15:07:42.433Z,1.57
2018-08-06T15:10:17.417Z,0.70
2018-08-06T15:12:53.049Z,1.90
2018-08-06T15:15:27.993Z,1.10
2018-08-06T15:18:03.703Z,0.80
2018-08-06T15:20:38.950Z,0.90
2018-08-06T15:23:13.948Z,0.70
2018-08-06T15:25:48.711Z,1.23
2018-08-06T15:28:23.440Z,1.10
2018-08-06T15:30:58.148Z,0.67
2018-08-06T15:33:32.839Z,0.80
2018-08-06T15:36:07.960Z,10.13
2018-08-06T15:38:43.010Z,8.60
2018-08-06T15:41:18.045Z,3.27
2018-08-06T15:43:54.385Z,1.10
2018-08-06T15:46:29.319Z,5.33
2018-08-06T15:49:04.274Z,5.60
2018-08-06T15:51:39.234Z,1.33
2018-08-06T15:54:13.928Z,4.17
2018-08-06T15:56:49.045Z,1.70
2018-08-06T15:59:24.016Z,1.90
2018-08-06T16:01:59.135Z,3.13
2018-08-06T16:04:34.377Z,1.53
2018-08-06T16:07:10.080Z,1.43
2018-08-06T16:09:45.065Z,2.23
2018-08-06T16:12:19.980Z,2.10
2018-08-06T16:14:55.684Z,2.07
2018-08-06T16:17:30.410Z,2.20
2018-08-06T16:19:59.765Z,1.70
2018-08-06T16:22:28.922Z,1.77
2018-08-06T16:24:58.158Z,2.63
2018-08-06T16:27:27.289Z,2.10
2018-08-06T16:29:56.788Z,2.37
2018-08-06T16:32:25.997Z,6.80
2018-08-06T16:34:55.187Z,4.03
2018-08-06T16:37:24.377Z,1.90
2018-08-06T16:39:53.535Z,1.70
2018-08-06T16:42:22.734Z,2.03
2018-08-06T16:44:52.452Z,2.10
2018-08-06T16:47:21.644Z,1.77
2018-08-06T16:49:51.750Z,1.80
2018-08-06T16:52:20.957Z,2.07
2018-08-06T16:54:50.130Z,1.90
2018-08-06T16:57:19.298Z,3.00
2018-08-06T16:59:48.806Z,1.67
2018-08-06T17:02:17.993Z,1.80
2018-08-06T17:04:47.154Z,2.07
2018-08-06T17:07:16.390Z,3.23
2018-08-06T17:09:45.559Z,3.33
2018-08-06T17:12:15.692Z,2.60
2018-08-06T17:14:45.344Z,2.10
2018-08-06T17:17:15.037Z,7.40
2018-08-06T17:19:44.748Z,1.77
2018-08-06T17:22:13.996Z,2.00
2018-08-06T17:24:43.553Z,1.80
2018-08-06T17:27:12.710Z,8.67
2018-08-06T17:29:42.654Z,10.73
2018-08-06T17:32:12.741Z,14.33
2018-08-06T17:34:42.200Z,7.13
2018-08-06T17:37:11.593Z,10.87
2018-08-06T17:39:40.801Z,10.43
2018-08-06T17:42:10.457Z,2.73
2018-08-06T17:44:39.650Z,5.13
2018-08-06T17:47:09.084Z,7.50
2018-08-06T17:49:38.467Z,2.93
2018-08-06T17:52:08.260Z,4.50
2018-08-06T17:54:37.925Z,4.87
2018-08-06T17:57:08.056Z,1.97
2018-08-06T17:59:37.965Z,4.80
2018-08-06T18:02:07.862Z,2.00
2018-08-06T18:04:37.781Z,3.40
2018-08-06T18:07:07.259Z,2.07
2018-08-06T18:09:36.994Z,16.60
2018-08-06T18:12:06.657Z,8.70
2018-08-06T18:14:36.132Z,4.10
2018-08-06T18:17:05.602Z,3.13
2018-08-06T18:19:35.071Z,4.70
2018-08-06T18:22:04.488Z,2.13
2018-08-06T18:24:33.673Z,4.13
2018-08-06T18:27:02.857Z,4.43
2018-08-06T18:29:32.030Z,2.50
2018-08-06T18:32:01.231Z,1.97
2018-08-06T18:34:30.412Z,3.53
2018-08-06T18:36:59.664Z,2.10
2018-08-06T18:39:28.768Z,2.93
2018-08-06T18:41:58.735Z,1.83
2018-08-06T18:44:28.479Z,2.10
2018-08-06T18:46:58.151Z,3.13
2018-08-06T18:49:27.811Z,7.60
2018-08-06T18:51:57.257Z,2.40
2018-08-06T18:54:26.649Z,2.93
2018-08-06T18:56:56.298Z,5.20
2018-08-06T18:59:25.693Z,2.47
2018-08-06T19:01:55.997Z,2.73
2018-08-06T19:04:25.998Z,2.30
2018-08-06T19:06:55.654Z,2.67
2018-08-06T19:09:25.684Z,10.83
2018-08-06T19:11:59.348Z,2.97
2018-08-06T19:14:28.729Z,2.70
2018-08-06T19:16:57.909Z,2.53
2018-08-06T19:19:28.835Z,2.63
2018-08-06T19:21:59.629Z,2.90
2018-08-06T19:24:34.541Z,2.13
2018-08-06T19:27:04.748Z,2.37
2018-08-06T19:29:34.392Z,5.43
2018-08-06T19:32:04.400Z,2.57
2018-08-06T19:34:34.031Z,9.77
2018-08-06T19:37:08.485Z,3.03
2018-08-06T19:39:37.985Z,2.30
2018-08-06T19:42:07.496Z,4.87
2018-08-06T19:44:36.948Z,6.00
2018-08-06T19:47:06.611Z,3.20
2018-08-06T19:49:41.371Z,6.80
2018-08-06T19:52:11.400Z,7.37
2018-08-06T19:54:40.576Z,5.13
2018-08-06T19:57:09.747Z,2.10
2018-08-06T19:59:38.912Z,4.50
2018-08-06T20:02:08.380Z,2.70
2018-08-06T20:04:37.776Z,2.43
2018-08-06T20:07:06.974Z,4.20
2018-08-06T20:09:36.405Z,9.40
2018-08-06T20:12:06.065Z,9.73
2018-08-06T20:14:37.276Z,7.10
2018-08-06T20:17:07.011Z,8.93
2018-08-06T20:19:36.409Z,8.73
2018-08-06T20:22:07.152Z,3.73
2018-08-06T20:24:36.851Z,5.90
2018-08-06T20:27:06.575Z,4.07
2018-08-06T20:29:36.323Z,4.03
2018-08-06T20:32:06.506Z,2.40
2018-08-06T20:34:36.359Z,6.07
2018-08-06T20:37:05.783Z,8.00
2018-08-06T20:39:34.924Z,2.97
2018-08-06T20:42:04.357Z,4.40
2018-08-06T20:44:34.014Z,2.90
2018-08-06T20:47:03.713Z,5.90
2018-08-06T20:49:32.881Z,3.30
2018-08-06T20:52:02.070Z,4.60
2018-08-06T20:54:31.259Z,2.00
2018-08-06T20:57:01.054Z,2.70
2018-08-06T20:59:30.125Z,5.27
2018-08-06T21:01:59.344Z,2.13
2018-08-06T21:04:28.568Z,3.97
2018-08-06T21:06:57.723Z,3.60
2018-08-06T21:09:26.907Z,8.10
2018-08-06T21:11:56.389Z,2.77
2018-08-06T21:14:25.567Z,4.23
2018-08-06T21:16:54.756Z,2.70
2018-08-06T21:19:24.189Z,3.30
2018-08-06T21:21:53.796Z,4.13
2018-08-06T21:24:23.235Z,1.87
2018-08-06T21:26:52.900Z,5.80
2018-08-06T21:29:22.280Z,2.53
2018-08-06T21:31:51.462Z,2.37
2018-08-06T21:34:20.892Z,2.90
2018-08-06T21:36:50.304Z,2.27
2018-08-06T21:39:19.743Z,3.43
2018-08-06T21:41:49.412Z,2.47
2018-08-06T21:44:19.131Z,4.50
2018-08-06T21:46:48.332Z,2.20
2018-08-06T21:49:17.781Z,2.70
2018-08-06T21:51:47.809Z,3.17
2018-08-06T21:54:16.988Z,2.17
2018-08-06T21:56:47.107Z,2.00
2018-08-06T21:59:16.769Z,2.87
2018-08-06T22:01:46.424Z,3.43
2018-08-06T22:04:16.161Z,2.90
2018-08-06T22:06:46.154Z,4.13
2018-08-06T22:09:15.796Z,2.50
2018-08-06T22:11:46.846Z,2.43
2018-08-06T22:14:16.264Z,2.50
2018-08-06T22:16:45.694Z,2.63
2018-08-06T22:19:15.834Z,3.00
2018-08-06T22:21:45.238Z,2.00
2018-08-06T22:24:14.667Z,2.87
2018-08-06T22:26:44.354Z,16.20
2018-08-06T22:29:14.236Z,3.13
2018-08-06T22:31:43.401Z,2.30
2018-08-06T22:34:12.576Z,2.40
2018-08-06T22:36:41.732Z,4.40
2018-08-06T22:39:11.469Z,3.70
2018-08-06T22:41:40.990Z,2.50
2018-08-06T22:44:10.634Z,2.83
2018-08-06T22:46:40.025Z,3.10
2018-08-06T22:49:09.502Z,3.10
2018-08-06T22:51:39.152Z,3.27
2018-08-06T22:54:08.540Z,3.50
2018-08-06T22:56:38.217Z,3.10
2018-08-06T22:59:07.417Z,2.87
2018-08-06T23:01:37.089Z,2.60
2018-08-06T23:04:06.545Z,3.13
2018-08-06T23:06:36.242Z,3.10
2018-08-06T23:09:07.406Z,3.00
2018-08-06T23:11:36.548Z,3.10
2018-08-06T23:14:05.764Z,2.80
2018-08-06T23:16:35.626Z,2.70
2018-08-06T23:19:04.803Z,2.90
2018-08-06T23:21:34.258Z,3.10
2018-08-06T23:24:04.263Z,3.10
2018-08-06T23:26:33.809Z,2.37
2018-08-06T23:29:03.181Z,2.97
2018-08-06T23:31:32.344Z,3.90
2018-08-06T23:34:02.119Z,2.93
2018-08-06T23:36:32.252Z,6.83
2018-08-06T23:39:01.680Z,3.30
2018-08-06T23:41:31.056Z,2.97
2018-08-06T23:44:00.243Z,3.77
2018-08-06T23:46:29.364Z,4.80
2018-08-06T23:48:59.152Z,3.30
2018-08-06T23:51:28.942Z,3.57
2018-08-06T23:53:58.406Z,3.43
2018-08-06T23:56:27.614Z,2.83
2018-08-06T23:58:57.084Z,3.50
